Kaneohe, HI

1:40 PM HST on March 04, 2015 (GMT -1000)
Kaneohe Bay Marine Corps Air Facility | Change Station
CLOSE
Current Station
Airport
Location: Kaneohe MCBH,
Elevation: 23 ft
Nearby Weather Stations

Elev 23 ft 21.45 °N, 157.76 °W | Updated 43 minutes ago

Overcast
Overcast
75 °F
Feels Like 75 °F
N
16
Wind Variable Wind from NNE

Today
High -- | Low -- °F
--% Chance of Precip.
Yesterday
High -- | Low -- °F
Precip. -- in
6:49 AM 6:36 PM
Waxing Gibbous, 99% visible
Pressure 29.98 in
Visibility -9999.0 miles
Clouds Scattered Clouds 2600 ft
Mostly Cloudy 3600 ft
Overcast 5500 ft
Dew Point 64 °F
Humidity 69%
Rainfall 0.00 in
Snow Depth Not available.
UV 3 out of 12
Pollen Not available.
Air Quality Not available.
Flu Activity Not available.
METAR PHNG 042257Z AUTO 03014KT SCT026 BKN036 OVC055 24/18 A2999 RMK AO2 SLP152 T02390178 $

More Conditions Fewer Conditions

Pressure 29.98 in
Visibility -9999.0 miles
Clouds Scattered Clouds 2600 ft
Mostly Cloudy 3600 ft
Overcast 5500 ft
Dew Point 64 °F
Humidity 69%
Rainfall 0.00 in
Snow Depth Not available.
UV 3 out of 12
Pollen Not available.
Air Quality Not available.
Flu Activity Not available.
METAR PHNG 042257Z AUTO 03014KT SCT026 BKN036 OVC055 24/18 A2999 RMK AO2 SLP152 T02390178 $

More Conditions Fewer Conditions

10-Day Weather Forecast

Almanac

Astronomy

Mar. 04, 2015 Rise Set
Actual Time
Civil Twilight
Nautical Twilight
Astronomical Twilight
Moon
Length of Visible Light
Length of Day
Tomorrow will be .
, % of the Moon is Illuminated

Today's Extremes

State Highs State Lows

Community

WunderPhotos

Upload Photos

1,802,605 photos uploaded!

WunderBlogs® & News

Nearby

Air Quality

  Air Quality AQ Index Pollutant
Not available.

Snow Depth

Station Depth Elevation

Earthquake Activity

City Distance Mag. Time & Date
Minimum magnitude displayed is 2.5.

Coastal Water Temperatures

Place Temperature

Nearby Weather Stations